• Join FlightAware (Why Join?)
  • Login
  • US Flag 
08:57PM EDT


 

Airport Tracker/Info


-or-


 

Live Flight TrackerFlight Track Log ✈ N135LR ✈ 15-May-2013 ✈ KFXE - SVMI / CCS

Flight Track Log - Related Links

Times and Time Zones

All times are in EDT time to prevent confusion due to time zone crossing. See the N135LR flight status page for this flight to view local times or setup timezone preferences in your user account.

Time Position Orientation Groundspeed Altitude Reporting Facility
EDT Latitude Longitude Course Direction KTS MPH feet Rate Location/Type
09:32AM 26.1992 -80.0939 90° East 222 255 2,000  Level Miami Center
09:33AM 26.1986 -80.0175 90° East 248 285 2,200 1,740 Climbing Miami Center
09:34AM 26.1750 -79.9497 111° Southeast 238 274 5,600 3,120 Climbing Miami Center
09:35AM 26.1450 -79.8864 118° Southeast 225 259 8,600 2,400 Climbing Miami Center
09:36AM 26.1072 -79.8019 116° Southeast 248 285 10,800 1,500 Climbing Miami Center
09:37AM 26.0669 -79.7225 119° Southeast 277 319 11,900 2,100 Climbing Miami Center
09:38AM 26.0206 -79.6358 121° Southeast 300 345 15,000 3,120 Climbing Miami Center
09:39AM 25.9781 -79.5631 123° Southeast 300 345 18,200 2,520 Climbing Miami Center
09:40AM 25.9206 -79.5019 136° Southeast 284 327 20,100 1,440 Climbing Miami Center
09:41AM 25.8675 -79.4361 132° Southeast 297 342 21,100 1,200 Climbing Miami Center
09:42AM 25.7917 -79.3444 133° Southeast 343 395 22,500 1,500 Climbing Miami Center
09:43AM 25.7344 -79.2669 129° Southeast 359 413 24,100 1,860 Climbing Miami Center
09:44AM 25.6669 -79.1828 132° Southeast 370 426 26,300 2,100 Climbing Miami Center
09:45AM 25.5994 -79.0986 132° Southeast 370 426 28,300 1,500 Climbing Miami Center
09:46AM 25.5294 -79.0144 133° Southeast 370 426 29,400 960 Climbing Miami Center
09:47AM 25.4533 -78.9303 135° Southeast 370 426 30,300 900 Climbing Miami Center
09:48AM 25.3733 -78.8322 132° Southeast 393 452 31,200 900 Climbing Miami Center
09:49AM 25.2953 -78.7322 131° Southeast 416 479 32,200 1,080 Climbing Miami Center
09:50AM 25.2108 -78.6344 134° Southeast 425 489 33,400 1,140 Climbing Miami Center
09:51AM 25.1303 -78.5344 132° Southeast 430 495 34,500 1,080 Climbing Miami Center
09:52AM 25.0478 -78.4325 132° Southeast 430 495 35,600 960 Climbing Miami Center
09:53AM 24.9653 -78.3328 132° Southeast 435 501 36,500 780 Climbing Miami Center
09:54AM 24.8806 -78.2311 133° Southeast 440 506 37,200 600 Climbing Miami Center
09:55AM 24.7939 -78.1269 132° Southeast 455 524 37,800 660 Climbing Miami Center
09:56AM 24.7069 -78.0208 132° Southeast 455 524 38,600 600 Climbing Miami Center
09:57AM 24.6200 -77.9172 133° Southeast 455 524 39,000 180 Climbing Miami Center
09:58AM 24.5286 -77.8092 133° Southeast 465 535 39,000  Level Miami Center
09:59AM 24.4372 -77.6989 132° Southeast 476 548 39,000  Level Miami Center
10:00AM 24.3397 -77.5842 133° Southeast 489 563 39,000  Level Miami Center
10:01AM 24.2461 -77.4697 132° Southeast 499 574 39,000  Level Miami Center
10:02AM 24.1506 -77.3553 132° Southeast 499 574 39,000  Level Miami Center
10:03AM 24.0547 -77.2433 133° Southeast 499 574 39,000  Level Miami Center
10:04AM 23.9589 -77.1272 132° Southeast 504 580 39,000  Level Miami Center
10:05AM 23.8586 -77.0067 132° Southeast 499 574 39,000  Level Miami Center
10:06AM 23.7647 -76.8931 132° Southeast 504 580 39,000  Level Miami Center
10:07AM 23.6642 -76.7817 135° Southeast 504 580 39,000  Level Miami Center
10:08AM 23.5703 -76.6661 132° Southeast 504 580 39,000  Level Miami Center
10:09AM 23.4717 -76.5553 134° Southeast 504 580 39,000  Level Miami Center
10:10AM 23.3775 -76.4447 133° Southeast 504 580 39,000  Level Miami Center
10:11AM 23.2789 -76.3319 134° Southeast 504 580 39,000  Level Miami Center
10:12AM 23.1822 -76.2169 132° Southeast 504 580 39,000  Level Miami Center
10:13AM 23.0856 -76.1069 134° Southeast 504 580 39,000  Level Miami Center
10:14AM 22.9869 -75.9947 134° Southeast 504 580 39,000  Level Miami Center
10:15AM 22.8900 -75.8825 133° Southeast 504 580 39,000  Level Miami Center
10:16AM 22.7931 -75.7706 133° Southeast 504 580 39,000  Level Miami Center
10:17AM 22.6961 -75.6589 133° Southeast 504 580 39,000  Level Miami Center
10:18AM 22.5969 -75.5472 134° Southeast 504 580 39,000  Level Miami Center
10:19AM 22.4978 -75.4336 133° Southeast 504 580 39,000  Level Miami Center
10:20AM 22.4006 -75.3222 133° Southeast 504 580 39,000  Level Miami Center
10:21AM 22.3014 -75.2089 133° Southeast 504 580 39,000  Level Miami Center
10:22AM 22.2019 -75.0958 134° Southeast 509 586 39,000  Level Miami Center
10:23AM 22.0983 -74.9897 136° Southeast 509 586 39,000  Level Miami Center
10:24AM 21.9864 -74.8928 141° Southeast 509 586 39,000  Level Miami Center
10:25AM 21.8783 -74.7914 139° Southeast 516 594 39,000  Level Miami Center
10:26AM 21.7683 -74.6925 140° Southeast 516 594 39,000 -60 Level Miami Center
10:27AM 21.6731 -74.5958 137° Southeast 522 601 38,900 -60 Descending Miami Center
10:28AM 21.5650 -74.4950 139° Southeast 515 593 38,900  Level Miami Center
10:29AM 21.4525 -74.3744 135° Southeast 515 593 38,900  Level Miami Center
10:30AM 21.3525 -74.2669 135° Southeast 515 593 38,900  Level Miami Center
10:31AM 21.2403 -74.1689 141° Southeast 509 586 38,900  Level Miami Center
10:32AM 21.1300 -74.0756 142° Southeast 516 594 39,000  Climbing Miami Center
10:33AM 21.0175 -73.9778 141° Southeast 516 594 39,000  Level Miami Center
10:34AM 20.9031 -73.8781 141° Southeast 516 594 39,000  Level Miami Center
10:35AM 20.7925 -73.7828 141° Southeast 516 594 39,000  Level Miami Center
10:36AM 20.6822 -73.6878 141° Southeast 516 594 39,000  Level Miami Center
10:37AM 20.5717 -73.5906 141° Southeast 516 594 39,000  Level Miami Center
10:38AM 20.4611 -73.4936 141° Southeast 521 600 39,000  Level Miami Center
10:39AM 20.3506 -73.3967 141° Southeast 521 600 39,000  Level Miami Center
10:40AM 20.2358 -73.3003 142° Southeast 521 600 39,000  Level Miami Center
10:41AM 20.1272 -73.2103 142° Southeast 516 594 39,000  Level Miami Center
10:43AM 19.9499 -73.1017 152° Southeast  Level FlightAware Approximate
10:50AM 19.1783 -72.6776 153° Southeast  Level FlightAware Approximate
10:51AM 19.0680 -72.6174 153° Southeast  Level FlightAware Approximate
10:52AM 18.9583 -72.5559 152° Southeast  Level FlightAware Approximate
10:53AM 18.8486 -72.4944 152° Southeast  Level FlightAware Approximate
10:54AM 18.7389 -72.4330 152° Southeast  Level FlightAware Approximate
10:55AM 18.6291 -72.3720 153° Southeast  Level FlightAware Approximate
10:56AM 18.5185 -72.3125 153° Southeast  Level FlightAware Approximate
10:57AM 18.4093 -72.2506 148° Southeast  Level FlightAware Approximate
10:58AM 18.3044 -72.1806 148° Southeast  Level FlightAware Approximate
10:59AM 18.1995 -72.1107 148° Southeast  Level FlightAware Approximate
11:00AM 18.0932 -72.0433 151° Southeast  Level FlightAware Approximate
11:01AM 17.9847 -71.9799 151° Southeast  Level FlightAware Approximate
11:02AM 17.8774 -71.9143 149° Southeast  Level FlightAware Approximate
11:03AM 17.7713 -71.8467 149° Southeast  Level FlightAware Approximate
11:04AM 17.6651 -71.7792 149° Southeast  Level FlightAware Approximate
11:05AM 17.5601 -71.7101 136° Southeast  Level FlightAware Approximate
11:06AM 17.4548 -71.6419 150° Southeast  Level FlightAware Approximate
11:07AM 17.3474 -71.5766 150° Southeast  Level FlightAware Approximate
11:08AM 17.2401 -71.5113 150° Southeast  Level FlightAware Approximate
11:09AM 17.1330 -71.4456 149° Southeast  Level FlightAware Approximate
11:10AM 17.0264 -71.3789 149° Southeast  Level FlightAware Approximate
11:11AM 16.9198 -71.3124 149° Southeast  Level FlightAware Approximate
11:12AM 16.8129 -71.2465 150° Southeast  Level FlightAware Approximate
11:13AM 16.7059 -71.1808 150° Southeast  Level FlightAware Approximate
11:14AM 16.5988 -71.1153 150° Southeast  Level FlightAware Approximate
11:15AM 16.4917 -71.0498 150° Southeast  Level FlightAware Approximate
11:16AM 16.3846 -70.9843 150° Southeast  Level FlightAware Approximate
11:17AM 16.2775 -70.9190 150° Southeast  Level FlightAware Approximate
11:18AM 16.1704 -70.8537 150° Southeast  Level FlightAware Approximate
11:19AM 16.0632 -70.7884 150° Southeast  Level FlightAware Approximate
11:20AM 15.9537 -70.7280 155° Southeast  Level FlightAware Approximate
11:21AM 15.8407 -70.6744 155° Southeast  Level FlightAware Approximate
11:22AM 15.7278 -70.6209 155° Southeast  Level FlightAware Approximate
11:23AM 15.6149 -70.5674 155° Southeast  Level FlightAware Approximate
11:24AM 15.5019 -70.5140 156° South  Level FlightAware Approximate
11:25AM 15.3889 -70.4606 156° South  Level FlightAware Approximate
11:26AM 15.2759 -70.4073 156° South  Level FlightAware Approximate
11:27AM 15.1629 -70.3541 156° South  Level FlightAware Approximate
11:28AM 15.0497 -70.3014 156° South  Level FlightAware Approximate
11:29AM 14.9360 -70.2498 156° South  Level FlightAware Approximate
11:30AM 14.8223 -70.1983 156° South  Level FlightAware Approximate
11:31AM 14.7085 -70.1468 156° South  Level FlightAware Approximate
11:32AM 14.5948 -70.0954 156° South  Level FlightAware Approximate
11:33AM 14.4810 -70.0441 156° South  Level FlightAware Approximate
11:34AM 14.3673 -69.9927 156° South  Level FlightAware Approximate
11:35AM 14.2539 -69.9406 156° South  Level FlightAware Approximate
11:36AM 14.1405 -69.8885 156° South  Level FlightAware Approximate
11:37AM 14.0271 -69.8365 156° South  Level FlightAware Approximate
11:38AM 13.9136 -69.7846 156° South  Level FlightAware Approximate
11:39AM 13.8002 -69.7327 156° South  Level FlightAware Approximate
11:40AM 13.6867 -69.6808 156° South  Level FlightAware Approximate
11:41AM 13.5733 -69.6290 156° South  Level FlightAware Approximate
11:42AM 13.4598 -69.5773 156° South  Level FlightAware Approximate
11:43AM 13.3463 -69.5256 156° South  Level FlightAware Approximate
11:44AM 13.2328 -69.4740 156° South  Level FlightAware Approximate
11:45AM 13.1193 -69.4224 156° South  Level FlightAware Approximate
11:46AM 13.0057 -69.3709 156° South  Level FlightAware Approximate
11:47AM 12.8919 -69.3199 156° South  Level FlightAware Approximate
11:48AM 12.7782 -69.2689 156° South  Level FlightAware Approximate
11:49AM 12.6645 -69.2179 156° South  Level FlightAware Approximate
11:50AM 12.5507 -69.1670 156° South  Level FlightAware Approximate
11:51AM 12.4373 -69.1154 156° South  Level FlightAware Approximate
11:52AM 12.3238 -69.0638 156° South  Level FlightAware Approximate
11:53AM 12.2104 -69.0123 156° South  Level FlightAware Approximate
11:54AM 12.1157 -68.9324 136° Southeast  Level FlightAware Approximate
11:55AM 12.0246 -68.8462 138° Southeast  Level FlightAware Approximate
11:56AM 11.9329 -68.7606 138° Southeast  Level FlightAware Approximate
11:57AM 11.8412 -68.6751 138° Southeast  Level FlightAware Approximate
11:58AM 11.7496 -68.5895 138° Southeast  Level FlightAware Approximate
11:59AM 11.6579 -68.5040 138° Southeast  Level FlightAware Approximate
12:00PM 11.5674 -68.4174 136° Southeast  Level FlightAware Approximate
12:01PM 11.4787 -68.3287 136° Southeast  Level FlightAware Approximate
12:02PM 11.3901 -68.2401 136° Southeast  Level FlightAware Approximate
12:03PM 11.2994 -68.1536 138° Southeast  Level FlightAware Approximate
12:04PM 11.2071 -68.0690 138° Southeast  Level FlightAware Approximate
12:05PM 11.1153 -67.9838 137° Southeast  Level FlightAware Approximate
12:06PM 11.0245 -67.8976 137° Southeast  Level FlightAware Approximate
12:07PM 10.9335 -67.8115 137° Southeast  Level FlightAware Approximate
12:08PM 10.8426 -67.7254 137° Southeast  Level FlightAware Approximate
12:09PM 10.7538 -67.6371 135° Southeast  Level FlightAware Approximate
12:10PM 10.6667 -67.5542 90° East  Level FlightAware Approximate
12:11PM 10.6667 -67.4278 90° East  Level FlightAware Approximate
12:12PM 10.6426 -67.3090 96° East  Level FlightAware Approximate
12:13PM 10.6293 -67.1837 104° East  Level FlightAware Approximate
12:14PM 10.6167 -67.0590 90° East  Level FlightAware Approximate
12:15PM 10.6031 -66.9906 90° East  Level Estimated
12:16PM 10.6031 -66.9906 90° East  Level Estimated
12:17PM 10.6031 -66.9906 90° East  Level Estimated
12:18PM 10.6031 -66.9906 90° East  Level Estimated
12:19PM 10.6031 -66.9906 90° East  Level Estimated
12:20PM 10.6031 -66.9906 90° East  Level Estimated
12:21PM 10.6031 -66.9906 90° East  Level Estimated
12:22PM 10.6031 -66.9906 90° East  Level Estimated
12:23PM 10.6031 -66.9906 90° East  Level Estimated
12:24PM 10.6031 -66.9906 90° East  Level Estimated
12:25PM 10.6031 -66.9906 90° East  Level Estimated
12:26PM 10.6031 -66.9906 90° East  Level Estimated
12:27PM 10.6031 -66.9906 90° East  Level Estimated
12:28PM 10.6031 -66.9906 90° East  Level Estimated
12:29PM 10.6031 -66.9906 90° East  Level Estimated
12:30PM 10.6031 -66.9906 90° East  Level Estimated
12:31PM 10.6031 -66.9906 90° East  Level Estimated
12:32PM 10.6031 -66.9906 90° East  Level Estimated